sensor_id;sensor_type;location;lat;lon;timestamp;temperature;humidity
36280;DHT22;22317;47.936;12.742;2022-10-22T00:00:18;12.40;76.30
36280;DHT22;22317;47.936;12.742;2022-10-22T00:02:44;12.50;76.00
36280;DHT22;22317;47.936;12.742;2022-10-22T00:05:10;12.30;75.80
36280;DHT22;22317;47.936;12.742;2022-10-22T00:07:35;12.40;76.50
36280;DHT22;22317;47.936;12.742;2022-10-22T00:10:03;12.20;76.00
36280;DHT22;22317;47.936;12.742;2022-10-22T00:12:29;12.30;77.00
36280;DHT22;22317;47.936;12.742;2022-10-22T00:14:54;12.30;76.30
36280;DHT22;22317;47.936;12.742;2022-10-22T00:17:20;12.20;76.40
36280;DHT22;22317;47.936;12.742;2022-10-22T00:19:46;12.30;76.70
36280;DHT22;22317;47.936;12.742;2022-10-22T00:22:12;12.20;76.10
36280;DHT22;22317;47.936;12.742;2022-10-22T00:24:38;12.10;76.30
36280;DHT22;22317;47.936;12.742;2022-10-22T00:27:06;12.20;77.10
36280;DHT22;22317;47.936;12.742;2022-10-22T00:29:32;12.00;76.20
36280;DHT22;22317;47.936;12.742;2022-10-22T00:31:58;12.10;76.90
36280;DHT22;22317;47.936;12.742;2022-10-22T00:34:24;12.10;76.70
36280;DHT22;22317;47.936;12.742;2022-10-22T00:36:50;12.00;77.00
36280;DHT22;22317;47.936;12.742;2022-10-22T00:39:18;11.70;77.30
36280;DHT22;22317;47.936;12.742;2022-10-22T00:41:45;12.10;77.50
36280;DHT22;22317;47.936;12.742;2022-10-22T00:47:18;12.00;75.40
36280;DHT22;22317;47.936;12.742;2022-10-22T00:49:45;12.00;77.10
36280;DHT22;22317;47.936;12.742;2022-10-22T00:52:12;11.80;76.80
36280;DHT22;22317;47.936;12.742;2022-10-22T00:54:38;11.80;77.40
36280;DHT22;22317;47.936;12.742;2022-10-22T00:57:05;11.90;78.40
36280;DHT22;22317;47.936;12.742;2022-10-22T00:59:31;11.60;77.20
36280;DHT22;22317;47.936;12.742;2022-10-22T01:01:57;11.80;77.70
36280;DHT22;22317;47.936;12.742;2022-10-22T01:04:23;11.80;78.10
36280;DHT22;22317;47.936;12.742;2022-10-22T01:06:49;11.90;78.40
36280;DHT22;22317;47.936;12.742;2022-10-22T01:09:29;11.70;77.90
36280;DHT22;22317;47.936;12.742;2022-10-22T01:15:17;11.80;76.30
36280;DHT22;22317;47.936;12.742;2022-10-22T01:17:49;11.80;76.40
36280;DHT22;22317;47.936;12.742;2022-10-22T01:26:41;11.40;75.90
36280;DHT22;22317;47.936;12.742;2022-10-22T01:29:18;11.50;76.30
36280;DHT22;22317;47.936;12.742;2022-10-22T01:32:00;11.70;79.10
36280;DHT22;22317;47.936;12.742;2022-10-22T01:34:28;11.60;76.40
36280;DHT22;22317;47.936;12.742;2022-10-22T01:36:55;11.70;79.60
36280;DHT22;22317;47.936;12.742;2022-10-22T01:39:23;11.50;79.00
36280;DHT22;22317;47.936;12.742;2022-10-22T01:41:52;11.60;79.40
36280;DHT22;22317;47.936;12.742;2022-10-22T01:44:35;11.60;79.10
36280;DHT22;22317;47.936;12.742;2022-10-22T01:47:30;11.70;79.90
36280;DHT22;22317;47.936;12.742;2022-10-22T02:03:59;11.50;80.00
36280;DHT22;22317;47.936;12.742;2022-10-22T02:06:27;11.40;78.10
36280;DHT22;22317;47.936;12.742;2022-10-22T02:08:54;11.50;80.30
36280;DHT22;22317;47.936;12.742;2022-10-22T02:11:21;11.30;80.50
36280;DHT22;22317;47.936;12.742;2022-10-22T02:13:55;11.40;79.90
36280;DHT22;22317;47.936;12.742;2022-10-22T02:16:35;11.00;79.90
36280;DHT22;22317;47.936;12.742;2022-10-22T02:19:06;11.50;79.70
36280;DHT22;22317;47.936;12.742;2022-10-22T02:21:34;11.40;79.70
36280;DHT22;22317;47.936;12.742;2022-10-22T02:24:00;11.00;78.80
36280;DHT22;22317;47.936;12.742;2022-10-22T02:26:33;11.00;79.20
36280;DHT22;22317;47.936;12.742;2022-10-22T02:29:24;11.30;78.70
36280;DHT22;22317;47.936;12.742;2022-10-22T02:31:53;11.70;79.50
36280;DHT22;22317;47.936;12.742;2022-10-22T02:34:23;11.50;73.00
36280;DHT22;22317;47.936;12.742;2022-10-22T02:36:51;11.40;78.50
36280;DHT22;22317;47.936;12.742;2022-10-22T02:39:24;11.40;79.40
36280;DHT22;22317;47.936;12.742;2022-10-22T02:41:54;11.10;78.30
36280;DHT22;22317;47.936;12.742;2022-10-22T02:44:22;11.40;79.30
36280;DHT22;22317;47.936;12.742;2022-10-22T02:46:51;11.60;79.80
36280;DHT22;22317;47.936;12.742;2022-10-22T02:49:17;11.20;69.10
36280;DHT22;22317;47.936;12.742;2022-10-22T02:51:43;11.20;66.10
36280;DHT22;22317;47.936;12.742;2022-10-22T02:54:08;11.30;66.20
36280;DHT22;22317;47.936;12.742;2022-10-22T02:56:34;11.30;66.10
36280;DHT22;22317;47.936;12.742;2022-10-22T02:59:00;11.30;66.10
36280;DHT22;22317;47.936;12.742;2022-10-22T03:01:26;11.30;66.50
36280;DHT22;22317;47.936;12.742;2022-10-22T03:03:51;11.30;67.00
36280;DHT22;22317;47.936;12.742;2022-10-22T03:06:17;11.30;66.20
36280;DHT22;22317;47.936;12.742;2022-10-22T03:08:43;11.30;66.30
36280;DHT22;22317;47.936;12.742;2022-10-22T03:11:08;11.40;66.30
36280;DHT22;22317;47.936;12.742;2022-10-22T03:13:34;11.40;66.10
36280;DHT22;22317;47.936;12.742;2022-10-22T03:16:00;11.40;66.50
36280;DHT22;22317;47.936;12.742;2022-10-22T03:18:26;11.40;66.50
36280;DHT22;22317;47.936;12.742;2022-10-22T03:23:31;11.40;66.70
36280;DHT22;22317;47.936;12.742;2022-10-22T03:26:00;11.40;66.70
36280;DHT22;22317;47.936;12.742;2022-10-22T03:28:26;11.40;66.80
36280;DHT22;22317;47.936;12.742;2022-10-22T03:30:52;11.40;67.10
36280;DHT22;22317;47.936;12.742;2022-10-22T03:33:17;11.40;67.20
36280;DHT22;22317;47.936;12.742;2022-10-22T03:35:45;11.30;67.80
36280;DHT22;22317;47.936;12.742;2022-10-22T03:38:12;11.30;67.20
36280;DHT22;22317;47.936;12.742;2022-10-22T03:40:38;11.30;67.40
36280;DHT22;22317;47.936;12.742;2022-10-22T03:43:04;11.30;67.60
36280;DHT22;22317;47.936;12.742;2022-10-22T03:45:30;11.30;67.70
36280;DHT22;22317;47.936;12.742;2022-10-22T03:47:55;11.30;67.80
36280;DHT22;22317;47.936;12.742;2022-10-22T03:50:21;11.20;67.90
36280;DHT22;22317;47.936;12.742;2022-10-22T03:52:47;11.20;68.00
36280;DHT22;22317;47.936;12.742;2022-10-22T03:55:13;11.20;67.50
36280;DHT22;22317;47.936;12.742;2022-10-22T03:57:38;11.20;68.20
36280;DHT22;22317;47.936;12.742;2022-10-22T04:00:05;11.20;68.40
36280;DHT22;22317;47.936;12.742;2022-10-22T04:02:31;11.10;68.40
36280;DHT22;22317;47.936;12.742;2022-10-22T04:04:56;11.20;68.80
36280;DHT22;22317;47.936;12.742;2022-10-22T04:07:22;11.20;68.90
36280;DHT22;22317;47.936;12.742;2022-10-22T04:09:48;11.40;70.20
36280;DHT22;22317;47.936;12.742;2022-10-22T04:12:14;11.20;68.90
36280;DHT22;22317;47.936;12.742;2022-10-22T04:14:39;11.20;69.10
36280;DHT22;22317;47.936;12.742;2022-10-22T04:17:05;11.30;69.10
36280;DHT22;22317;47.936;12.742;2022-10-22T04:19:31;11.30;69.10
36280;DHT22;22317;47.936;12.742;2022-10-22T04:21:58;11.30;69.10
36280;DHT22;22317;47.936;12.742;2022-10-22T04:24:24;11.40;69.10
36280;DHT22;22317;47.936;12.742;2022-10-22T04:26:53;11.40;69.00
36280;DHT22;22317;47.936;12.742;2022-10-22T04:29:19;11.40;68.90
36280;DHT22;22317;47.936;12.742;2022-10-22T04:31:45;11.50;69.00
36280;DHT22;22317;47.936;12.742;2022-10-22T04:34:10;11.50;69.00
36280;DHT22;22317;47.936;12.742;2022-10-22T04:36:36;11.50;68.90
36280;DHT22;22317;47.936;12.742;2022-10-22T04:39:03;11.50;68.40
36280;DHT22;22317;47.936;12.742;2022-10-22T04:41:31;11.50;69.00
36280;DHT22;22317;47.936;12.742;2022-10-22T04:43:58;11.50;69.00
36280;DHT22;22317;47.936;12.742;2022-10-22T04:46:27;11.50;68.90
36280;DHT22;22317;47.936;12.742;2022-10-22T04:48:56;11.50;69.00
36280;DHT22;22317;47.936;12.742;2022-10-22T04:51:23;11.50;69.10
36280;DHT22;22317;47.936;12.742;2022-10-22T04:53:49;11.50;69.20
36280;DHT22;22317;47.936;12.742;2022-10-22T04:56:18;11.50;69.10
36280;DHT22;22317;47.936;12.742;2022-10-22T04:59:19;11.50;69.10
36280;DHT22;22317;47.936;12.742;2022-10-22T05:01:40;11.50;69.00
36280;DHT22;22317;47.936;12.742;2022-10-22T05:04:08;11.40;68.90
36280;DHT22;22317;47.936;12.742;2022-10-22T05:06:35;11.40;69.10
36280;DHT22;22317;47.936;12.742;2022-10-22T05:09:04;11.40;69.10
36280;DHT22;22317;47.936;12.742;2022-10-22T05:11:35;11.30;69.10
36280;DHT22;22317;47.936;12.742;2022-10-22T05:14:04;11.40;69.30
36280;DHT22;22317;47.936;12.742;2022-10-22T05:16:31;11.40;69.20
36280;DHT22;22317;47.936;12.742;2022-10-22T05:18:58;11.40;69.10
36280;DHT22;22317;47.936;12.742;2022-10-22T05:21:24;11.30;69.00
36280;DHT22;22317;47.936;12.742;2022-10-22T05:23:51;11.40;69.10
36280;DHT22;22317;47.936;12.742;2022-10-22T05:26:19;11.30;69.00
36280;DHT22;22317;47.936;12.742;2022-10-22T05:28:46;11.30;68.90
36280;DHT22;22317;47.936;12.742;2022-10-22T05:31:13;11.30;68.90
36280;DHT22;22317;47.936;12.742;2022-10-22T05:33:42;11.30;68.80
36280;DHT22;22317;47.936;12.742;2022-10-22T05:36:13;11.30;68.90
36280;DHT22;22317;47.936;12.742;2022-10-22T05:38:39;11.30;68.70
36280;DHT22;22317;47.936;12.742;2022-10-22T05:41:13;11.30;68.80
36280;DHT22;22317;47.936;12.742;2022-10-22T05:43:39;11.20;68.70
36280;DHT22;22317;47.936;12.742;2022-10-22T05:46:11;12.60;69.20
36280;DHT22;22317;47.936;12.742;2022-10-22T05:48:38;11.10;68.30
36280;DHT22;22317;47.936;12.742;2022-10-22T05:51:06;11.10;68.40
36280;DHT22;22317;47.936;12.742;2022-10-22T05:53:33;11.00;68.30
36280;DHT22;22317;47.936;12.742;2022-10-22T05:56:00;11.10;68.40
36280;DHT22;22317;47.936;12.742;2022-10-22T05:58:26;10.60;68.10
36280;DHT22;22317;47.936;12.742;2022-10-22T06:00:52;11.10;68.40
36280;DHT22;22317;47.936;12.742;2022-10-22T06:03:17;11.10;68.30
36280;DHT22;22317;47.936;12.742;2022-10-22T06:05:43;11.20;68.40
36280;DHT22;22317;47.936;12.742;2022-10-22T06:08:10;11.20;68.30
36280;DHT22;22317;47.936;12.742;2022-10-22T06:10:41;11.20;68.20
36280;DHT22;22317;47.936;12.742;2022-10-22T06:13:08;11.30;68.20
36280;DHT22;22317;47.936;12.742;2022-10-22T06:15:33;11.30;68.20
36280;DHT22;22317;47.936;12.742;2022-10-22T06:18:02;11.30;68.20
36280;DHT22;22317;47.936;12.742;2022-10-22T06:20:27;11.40;68.10
36280;DHT22;22317;47.936;12.742;2022-10-22T06:22:53;11.40;68.00
36280;DHT22;22317;47.936;12.742;2022-10-22T06:25:19;11.40;67.40
36280;DHT22;22317;47.936;12.742;2022-10-22T06:27:49;11.50;68.00
36280;DHT22;22317;47.936;12.742;2022-10-22T06:30:16;11.50;67.90
36280;DHT22;22317;47.936;12.742;2022-10-22T06:32:42;11.60;67.80
36280;DHT22;22317;47.936;12.742;2022-10-22T06:35:07;11.60;67.80
36280;DHT22;22317;47.936;12.742;2022-10-22T06:37:33;11.60;67.80
36280;DHT22;22317;47.936;12.742;2022-10-22T06:39:59;11.50;67.50
36280;DHT22;22317;47.936;12.742;2022-10-22T06:42:26;11.60;67.80
36280;DHT22;22317;47.936;12.742;2022-10-22T06:44:52;11.70;67.90
36280;DHT22;22317;47.936;12.742;2022-10-22T06:47:20;11.70;67.80
36280;DHT22;22317;47.936;12.742;2022-10-22T06:49:47;11.60;67.20
36280;DHT22;22317;47.936;12.742;2022-10-22T06:52:13;11.60;67.60
36280;DHT22;22317;47.936;12.742;2022-10-22T06:54:39;11.60;67.60
36280;DHT22;22317;47.936;12.742;2022-10-22T06:57:07;11.60;67.70
36280;DHT22;22317;47.936;12.742;2022-10-22T06:59:33;11.60;67.60
36280;DHT22;22317;47.936;12.742;2022-10-22T07:01:59;11.70;67.60
36280;DHT22;22317;47.936;12.742;2022-10-22T07:04:24;11.70;67.60
36280;DHT22;22317;47.936;12.742;2022-10-22T07:06:50;11.60;66.90
36280;DHT22;22317;47.936;12.742;2022-10-22T07:09:18;11.70;67.60
36280;DHT22;22317;47.936;12.742;2022-10-22T07:11:44;11.70;67.60
36280;DHT22;22317;47.936;12.742;2022-10-22T07:14:11;11.70;67.60
36280;DHT22;22317;47.936;12.742;2022-10-22T07:16:37;11.70;67.60
36280;DHT22;22317;47.936;12.742;2022-10-22T07:19:04;11.70;67.00
36280;DHT22;22317;47.936;12.742;2022-10-22T07:21:30;11.80;67.50
36280;DHT22;22317;47.936;12.742;2022-10-22T07:23:57;11.80;67.50
36280;DHT22;22317;47.936;12.742;2022-10-22T07:26:24;11.80;67.50
36280;DHT22;22317;47.936;12.742;2022-10-22T07:28:51;11.80;67.50
36280;DHT22;22317;47.936;12.742;2022-10-22T07:31:18;11.80;67.40
36280;DHT22;22317;47.936;12.742;2022-10-22T07:33:44;11.80;67.40
36280;DHT22;22317;47.936;12.742;2022-10-22T07:36:13;11.80;67.50
36280;DHT22;22317;47.936;12.742;2022-10-22T07:38:52;11.70;67.60
36280;DHT22;22317;47.936;12.742;2022-10-22T07:41:18;11.80;67.50
36280;DHT22;22317;47.936;12.742;2022-10-22T07:43:44;11.90;67.70
36280;DHT22;22317;47.936;12.742;2022-10-22T07:46:10;11.90;67.20
36280;DHT22;22317;47.936;12.742;2022-10-22T07:48:36;11.90;67.60
36280;DHT22;22317;47.936;12.742;2022-10-22T07:51:02;12.00;67.70
36280;DHT22;22317;47.936;12.742;2022-10-22T07:53:28;12.00;67.80
36280;DHT22;22317;47.936;12.742;2022-10-22T07:55:54;12.00;67.80
36280;DHT22;22317;47.936;12.742;2022-10-22T07:58:21;12.10;67.90
36280;DHT22;22317;47.936;12.742;2022-10-22T08:00:48;12.20;68.00
36280;DHT22;22317;47.936;12.742;2022-10-22T08:03:15;12.20;67.80
36280;DHT22;22317;47.936;12.742;2022-10-22T08:05:41;12.20;67.80
36280;DHT22;22317;47.936;12.742;2022-10-22T08:08:14;12.20;67.80
36280;DHT22;22317;47.936;12.742;2022-10-22T08:10:41;12.30;67.90
36280;DHT22;22317;47.936;12.742;2022-10-22T08:13:07;12.30;67.80
36280;DHT22;22317;47.936;12.742;2022-10-22T08:15:33;12.30;67.70
36280;DHT22;22317;47.936;12.742;2022-10-22T08:17:59;12.30;67.70
36280;DHT22;22317;47.936;12.742;2022-10-22T08:20:27;12.30;67.80
36280;DHT22;22317;47.936;12.742;2022-10-22T08:22:53;12.30;67.70
36280;DHT22;22317;47.936;12.742;2022-10-22T08:25:19;12.40;67.90
36280;DHT22;22317;47.936;12.742;2022-10-22T08:27:44;12.40;67.70
36280;DHT22;22317;47.936;12.742;2022-10-22T08:30:11;12.40;67.70
36280;DHT22;22317;47.936;12.742;2022-10-22T08:32:37;12.40;67.60
36280;DHT22;22317;47.936;12.742;2022-10-22T08:35:03;12.40;67.60
36280;DHT22;22317;47.936;12.742;2022-10-22T08:37:29;12.50;67.70
36280;DHT22;22317;47.936;12.742;2022-10-22T08:39:54;12.30;68.00
36280;DHT22;22317;47.936;12.742;2022-10-22T08:45:42;12.50;67.50
36280;DHT22;22317;47.936;12.742;2022-10-22T08:50:47;12.50;67.50
36280;DHT22;22317;47.936;12.742;2022-10-22T08:53:20;12.50;67.50
36280;DHT22;22317;47.936;12.742;2022-10-22T08:55:48;12.50;67.40
36280;DHT22;22317;47.936;12.742;2022-10-22T08:58:25;12.60;67.30
36280;DHT22;22317;47.936;12.742;2022-10-22T09:06:28;12.50;67.20
36280;DHT22;22317;47.936;12.742;2022-10-22T09:08:57;12.50;67.30
36280;DHT22;22317;47.936;12.742;2022-10-22T09:11:28;12.50;67.30
36280;DHT22;22317;47.936;12.742;2022-10-22T09:13:55;12.60;67.40
36280;DHT22;22317;47.936;12.742;2022-10-22T09:19:39;12.60;67.50
36280;DHT22;22317;47.936;12.742;2022-10-22T09:27:40;12.60;67.30
36280;DHT22;22317;47.936;12.742;2022-10-22T09:30:29;12.60;67.40
36280;DHT22;22317;47.936;12.742;2022-10-22T09:33:25;12.70;67.40
36280;DHT22;22317;47.936;12.742;2022-10-22T09:35:55;12.70;67.50
36280;DHT22;22317;47.936;12.742;2022-10-22T09:38:27;12.70;67.40
36280;DHT22;22317;47.936;12.742;2022-10-22T09:40:55;12.70;67.50
36280;DHT22;22317;47.936;12.742;2022-10-22T09:43:21;12.80;67.60
36280;DHT22;22317;47.936;12.742;2022-10-22T09:45:47;12.80;67.60
36280;DHT22;22317;47.936;12.742;2022-10-22T09:50:48;12.90;67.60
36280;DHT22;22317;47.936;12.742;2022-10-22T09:53:29;12.90;67.60
36280;DHT22;22317;47.936;12.742;2022-10-22T09:55:58;12.90;67.50
36280;DHT22;22317;47.936;12.742;2022-10-22T09:58:25;13.00;67.50
36280;DHT22;22317;47.936;12.742;2022-10-22T10:00:55;13.00;67.40
36280;DHT22;22317;47.936;12.742;2022-10-22T10:03:25;13.00;67.40
36280;DHT22;22317;47.936;12.742;2022-10-22T10:05:59;13.00;67.20
36280;DHT22;22317;47.936;12.742;2022-10-22T10:08:26;13.00;67.20
36280;DHT22;22317;47.936;12.742;2022-10-22T10:10:55;13.00;66.60
36280;DHT22;22317;47.936;12.742;2022-10-22T10:24:40;13.10;67.20
36280;DHT22;22317;47.936;12.742;2022-10-22T10:27:18;13.10;67.10
36280;DHT22;22317;47.936;12.742;2022-10-22T10:35:28;13.10;67.30
36280;DHT22;22317;47.936;12.742;2022-10-22T10:46:40;13.20;66.90
36280;DHT22;22317;47.936;12.742;2022-10-22T10:49:29;13.20;66.90
36280;DHT22;22317;47.936;12.742;2022-10-22T10:52:28;13.30;67.00
36280;DHT22;22317;47.936;12.742;2022-10-22T11:00:24;13.40;68.10
36280;DHT22;22317;47.936;12.742;2022-10-22T11:06:06;13.40;66.80
36280;DHT22;22317;47.936;12.742;2022-10-22T11:08:42;13.40;66.80
36280;DHT22;22317;47.936;12.742;2022-10-22T11:14:20;13.30;66.70
36280;DHT22;22317;47.936;12.742;2022-10-22T11:22:31;13.40;67.00
36280;DHT22;22317;47.936;12.742;2022-10-22T11:27:55;13.50;66.90
36280;DHT22;22317;47.936;12.742;2022-10-22T11:30:23;13.50;66.80
36280;DHT22;22317;47.936;12.742;2022-10-22T11:33:00;13.60;66.90
36280;DHT22;22317;47.936;12.742;2022-10-22T11:35:34;13.60;67.00
36280;DHT22;22317;47.936;12.742;2022-10-22T11:38:04;13.60;67.00
36280;DHT22;22317;47.936;12.742;2022-10-22T11:40:35;13.70;66.90
36280;DHT22;22317;47.936;12.742;2022-10-22T11:45:35;13.60;66.20
36280;DHT22;22317;47.936;12.742;2022-10-22T11:50:57;13.40;66.20
36280;DHT22;22317;47.936;12.742;2022-10-22T11:53:32;13.30;66.00
36280;DHT22;22317;47.936;12.742;2022-10-22T11:56:21;13.30;66.10
36280;DHT22;22317;47.936;12.742;2022-10-22T11:58:47;13.20;66.00
36280;DHT22;22317;47.936;12.742;2022-10-22T12:01:56;13.10;66.00
36280;DHT22;22317;47.936;12.742;2022-10-22T12:07:27;13.00;66.40
36280;DHT22;22317;47.936;12.742;2022-10-22T12:09:54;12.60;67.60
36280;DHT22;22317;47.936;12.742;2022-10-22T12:12:22;12.90;66.20
36280;DHT22;22317;47.936;12.742;2022-10-22T12:14:53;12.90;66.30
36280;DHT22;22317;47.936;12.742;2022-10-22T12:17:21;12.90;66.00
36280;DHT22;22317;47.936;12.742;2022-10-22T12:22:17;12.70;65.50
36280;DHT22;22317;47.936;12.742;2022-10-22T12:24:47;12.80;66.50
36280;DHT22;22317;47.936;12.742;2022-10-22T12:29:54;13.20;67.30
36280;DHT22;22317;47.936;12.742;2022-10-22T12:32:20;13.20;66.60
36280;DHT22;22317;47.936;12.742;2022-10-22T12:34:48;13.30;65.50
36280;DHT22;22317;47.936;12.742;2022-10-22T12:37:15;13.40;66.20
36280;DHT22;22317;47.936;12.742;2022-10-22T12:39:41;13.40;65.90
36280;DHT22;22317;47.936;12.742;2022-10-22T12:42:12;13.50;66.00
36280;DHT22;22317;47.936;12.742;2022-10-22T12:44:38;13.60;65.80
36280;DHT22;22317;47.936;12.742;2022-10-22T12:47:06;13.70;65.50
36280;DHT22;22317;47.936;12.742;2022-10-22T12:49:40;13.80;65.50
36280;DHT22;22317;47.936;12.742;2022-10-22T12:52:12;13.90;65.60
36280;DHT22;22317;47.936;12.742;2022-10-22T12:54:39;14.10;65.60
36280;DHT22;22317;47.936;12.742;2022-10-22T12:57:09;14.20;65.20
36280;DHT22;22317;47.936;12.742;2022-10-22T12:59:42;14.60;65.70
36280;DHT22;22317;47.936;12.742;2022-10-22T13:05:22;16.10;64.60
36280;DHT22;22317;47.936;12.742;2022-10-22T13:07:51;16.90;63.00
36280;DHT22;22317;47.936;12.742;2022-10-22T13:12:48;18.60;61.40
36280;DHT22;22317;47.936;12.742;2022-10-22T13:18:02;19.70;58.00
36280;DHT22;22317;47.936;12.742;2022-10-22T13:20:28;20.10;56.30
36280;DHT22;22317;47.936;12.742;2022-10-22T13:22:58;21.00;57.60
36280;DHT22;22317;47.936;12.742;2022-10-22T13:25:35;22.60;58.00
36280;DHT22;22317;47.936;12.742;2022-10-22T13:55:23;29.00;43.20
36280;DHT22;22317;47.936;12.742;2022-10-22T13:58:02;30.60;41.80
36280;DHT22;22317;47.936;12.742;2022-10-22T14:00:31;32.20;39.20
36280;DHT22;22317;47.936;12.742;2022-10-22T14:02:58;33.60;37.90
36280;DHT22;22317;47.936;12.742;2022-10-22T14:05:24;34.70;35.10
36280;DHT22;22317;47.936;12.742;2022-10-22T14:07:50;35.80;33.60
36280;DHT22;22317;47.936;12.742;2022-10-22T14:10:21;36.90;32.10
36280;DHT22;22317;47.936;12.742;2022-10-22T14:12:47;37.70;30.00
36280;DHT22;22317;47.936;12.742;2022-10-22T14:15:15;38.40;29.10
36280;DHT22;22317;47.936;12.742;2022-10-22T14:17:44;38.30;27.40
36280;DHT22;22317;47.936;12.742;2022-10-22T14:20:23;37.90;27.40
36280;DHT22;22317;47.936;12.742;2022-10-22T14:22:50;37.90;25.50
36280;DHT22;22317;47.936;12.742;2022-10-22T14:25:21;36.00;25.80
36280;DHT22;22317;47.936;12.742;2022-10-22T14:27:46;34.70;25.80
36280;DHT22;22317;47.936;12.742;2022-10-22T14:30:18;33.60;26.30
36280;DHT22;22317;47.936;12.742;2022-10-22T14:32:44;32.50;26.80
36280;DHT22;22317;47.936;12.742;2022-10-22T14:35:11;31.60;27.60
36280;DHT22;22317;47.936;12.742;2022-10-22T14:40:05;30.60;28.50
36280;DHT22;22317;47.936;12.742;2022-10-22T14:44:58;28.90;28.90
36280;DHT22;22317;47.936;12.742;2022-10-22T14:49:50;28.20;31.60
36280;DHT22;22317;47.936;12.742;2022-10-22T14:52:16;29.00;33.20
36280;DHT22;22317;47.936;12.742;2022-10-22T14:54:42;30.20;33.80
36280;DHT22;22317;47.936;12.742;2022-10-22T14:57:08;30.30;33.40
36280;DHT22;22317;47.936;12.742;2022-10-22T14:59:35;31.70;32.30
36280;DHT22;22317;47.936;12.742;2022-10-22T15:02:01;32.90;31.10
36280;DHT22;22317;47.936;12.742;2022-10-22T15:04:27;33.90;29.90
36280;DHT22;22317;47.936;12.742;2022-10-22T15:06:54;34.80;28.80
36280;DHT22;22317;47.936;12.742;2022-10-22T15:09:22;36.00;26.80
36280;DHT22;22317;47.936;12.742;2022-10-22T15:11:48;36.10;27.20
36280;DHT22;22317;47.936;12.742;2022-10-22T15:14:14;36.60;26.60
36280;DHT22;22317;47.936;12.742;2022-10-22T15:16:40;37.00;26.20
36280;DHT22;22317;47.936;12.742;2022-10-22T15:19:06;37.40;25.70
36280;DHT22;22317;47.936;12.742;2022-10-22T15:21:31;37.50;25.30
36280;DHT22;22317;47.936;12.742;2022-10-22T15:23:57;37.60;24.90
36280;DHT22;22317;47.936;12.742;2022-10-22T15:26:23;36.80;23.70
36280;DHT22;22317;47.936;12.742;2022-10-22T15:31:15;34.10;23.50
36280;DHT22;22317;47.936;12.742;2022-10-22T15:33:42;32.70;24.10
36280;DHT22;22317;47.936;12.742;2022-10-22T15:36:10;31.40;24.80
36280;DHT22;22317;47.936;12.742;2022-10-22T15:38:36;30.10;25.60
36280;DHT22;22317;47.936;12.742;2022-10-22T15:41:04;29.00;26.30
36280;DHT22;22317;47.936;12.742;2022-10-22T15:43:30;28.00;27.10
36280;DHT22;22317;47.936;12.742;2022-10-22T15:46:17;27.00;27.90
36280;DHT22;22317;47.936;12.742;2022-10-22T15:48:43;26.10;28.70
36280;DHT22;22317;47.936;12.742;2022-10-22T15:51:12;25.30;29.50
36280;DHT22;22317;47.936;12.742;2022-10-22T15:56:04;24.00;31.00
36280;DHT22;22317;47.936;12.742;2022-10-22T15:58:30;23.40;31.80
36280;DHT22;22317;47.936;12.742;2022-10-22T16:01:06;22.80;32.60
36280;DHT22;22317;47.936;12.742;2022-10-22T16:13:19;20.20;36.20
36280;DHT22;22317;47.936;12.742;2022-10-22T16:15:46;19.80;36.90
36280;DHT22;22317;47.936;12.742;2022-10-22T16:20:39;18.90;38.30
36280;DHT22;22317;47.936;12.742;2022-10-22T16:23:05;18.90;38.90
36280;DHT22;22317;47.936;12.742;2022-10-22T16:25:39;18.60;39.60
36280;DHT22;22317;47.936;12.742;2022-10-22T16:28:05;18.20;40.60
36280;DHT22;22317;47.936;12.742;2022-10-22T16:30:32;17.80;40.90
36280;DHT22;22317;47.936;12.742;2022-10-22T16:33:00;17.50;41.70
36280;DHT22;22317;47.936;12.742;2022-10-22T16:35:26;17.40;65.80
36280;DHT22;22317;47.936;12.742;2022-10-22T16:40:17;16.50;69.60
36280;DHT22;22317;47.936;12.742;2022-10-22T16:42:43;16.00;61.60
36280;DHT22;22317;47.936;12.742;2022-10-22T16:50:05;15.40;54.40
36280;DHT22;22317;47.936;12.742;2022-10-22T16:52:31;15.30;46.70
36280;DHT22;22317;47.936;12.742;2022-10-22T16:54:57;15.10;46.90
36280;DHT22;22317;47.936;12.742;2022-10-22T16:57:26;15.00;47.40
36280;DHT22;22317;47.936;12.742;2022-10-22T16:59:52;14.50;54.10
36280;DHT22;22317;47.936;12.742;2022-10-22T17:02:18;14.60;48.40
36280;DHT22;22317;47.936;12.742;2022-10-22T17:04:43;14.50;48.70
36280;DHT22;22317;47.936;12.742;2022-10-22T17:07:09;13.30;51.00
36280;DHT22;22317;47.936;12.742;2022-10-22T17:09:38;14.40;74.80
36280;DHT22;22317;47.936;12.742;2022-10-22T17:12:04;14.40;78.10
36280;DHT22;22317;47.936;12.742;2022-10-22T17:14:30;14.10;61.10
36280;DHT22;22317;47.936;12.742;2022-10-22T17:16:55;13.70;50.00
36280;DHT22;22317;47.936;12.742;2022-10-22T17:19:22;13.60;50.30
36280;DHT22;22317;47.936;12.742;2022-10-22T17:21:48;13.50;51.30
36280;DHT22;22317;47.936;12.742;2022-10-22T17:24:16;13.40;51.00
36280;DHT22;22317;47.936;12.742;2022-10-22T17:26:42;13.30;51.20
36280;DHT22;22317;47.936;12.742;2022-10-22T17:29:09;13.20;51.50
36280;DHT22;22317;47.936;12.742;2022-10-22T17:31:36;13.30;65.00
36280;DHT22;22317;47.936;12.742;2022-10-22T17:34:03;13.30;72.10
36280;DHT22;22317;47.936;12.742;2022-10-22T17:36:30;12.90;78.20
36280;DHT22;22317;47.936;12.742;2022-10-22T17:38:58;13.00;81.90
36280;DHT22;22317;47.936;12.742;2022-10-22T17:41:27;12.70;53.80
36280;DHT22;22317;47.936;12.742;2022-10-22T17:43:53;12.80;68.40
36280;DHT22;22317;47.936;12.742;2022-10-22T17:46:25;12.80;72.20
36280;DHT22;22317;47.936;12.742;2022-10-22T17:51:22;12.50;74.80
36280;DHT22;22317;47.936;12.742;2022-10-22T17:53:48;12.40;81.50
36280;DHT22;22317;47.936;12.742;2022-10-22T17:56:25;12.00;54.10
36280;DHT22;22317;47.936;12.742;2022-10-22T17:58:52;9.10;53.10
36280;DHT22;22317;47.936;12.742;2022-10-22T18:01:23;11.80;54.40
36280;DHT22;22317;47.936;12.742;2022-10-22T18:03:50;11.70;54.90
36280;DHT22;22317;47.936;12.742;2022-10-22T18:06:16;11.70;55.00
36280;DHT22;22317;47.936;12.742;2022-10-22T18:08:42;11.70;55.20
36280;DHT22;22317;47.936;12.742;2022-10-22T18:11:13;11.60;55.30
36280;DHT22;22317;47.936;12.742;2022-10-22T18:13:39;11.50;55.50
36280;DHT22;22317;47.936;12.742;2022-10-22T18:16:05;11.50;55.60
36280;DHT22;22317;47.936;12.742;2022-10-22T18:18:31;11.40;55.70
36280;DHT22;22317;47.936;12.742;2022-10-22T18:20:56;11.40;56.00
36280;DHT22;22317;47.936;12.742;2022-10-22T18:23:22;11.30;56.00